This is the latest recevied weather packets stored in our database for station/object K7LDN-13. If no packets are shown the sender has not sent any weather packets the latest 10 day(s).
| Time | Temp. | Humidity | Pressure | Rain* | Wind** | Luminosity | Snow |
|---|---|---|---|---|---|---|---|
| 1777688595 | 15.56° C | 28% | 1021.7 hPa | 0 mm | - | 4 W/m² | - |
| 1777688292 | 15.56° C | 28% | 1021.9 hPa | 0 mm | - | 7 W/m² | - |
| 1777687989 | 16.11° C | 28% | 1021.7 hPa | 0 mm | - | 10 W/m² | - |
| 1777687686 | 16.11° C | 28% | 1021.6 hPa | 0 mm | - | 14 W/m² | - |
| 1777674353 | 18.89° C | 21% | 1021.9 hPa | 0 mm | - | 563 W/m² | - |
| 1777674050 | 18.89° C | 21% | 1021.6 hPa | 0 mm | - | 576 W/m² | - |
| 1777673746 | 18.89° C | 22% | 1021.9 hPa | 0 mm | - | 592 W/m² | - |
| 1777673444 | 18.89° C | 23% | 1021.9 hPa | 0 mm | - | 607 W/m² | - |
| 1777671319 | 19.44° C | 23% | 1022.4 hPa | 0 mm | - | 686 W/m² | - |
| 1777670105 | 18.89° C | 23% | 1022.2 hPa | 0 mm | - | 736 W/m² | - |
| 1777669499 | 17.78° C | 23% | 1022.6 hPa | 0 mm | - | 762 W/m² | - |
| 1777667377 | 17.78° C | 22% | 1022.5 hPa | 0 mm | - | 821 W/m² | - |
| 1777666467 | 17.22° C | 25% | 1022.6 hPa | 0 mm | - | 839 W/m² | - |
| 1777666164 | 17.78° C | 22% | 1022.6 hPa | 0 mm | - | 843 W/m² | - |
| 1777665861 | 17.78° C | 23% | 1022.7 hPa | 0 mm | - | 849 W/m² | - |
| 1777660701 | 16.11° C | 23% | 1023 hPa | 0 mm | - | 860 W/m² | - |
| 1777660095 | 16.11° C | 24% | 1023.4 hPa | 0 mm | - | 857 W/m² | - |
| 1777659489 | 16.67° C | 22% | 1023.6 hPa | 0 mm | - | 852 W/m² | - |
| 1777659186 | 16.67° C | 25% | 1023.4 hPa | 0 mm | - | 850 W/m² | - |
| 1777658883 | 15.56° C | 27% | 1023.4 hPa | 0 mm | - | 846 W/m² | - |
| 1777657065 | 15° C | 30% | 1023.7 hPa | 0 mm | - | 810 W/m² | - |
| 1777656761 | 15° C | 29% | 1023.5 hPa | 0 mm | - | 804 W/m² | - |
| 1777656457 | 15° C | 30% | 1023.6 hPa | 0 mm | - | 795 W/m² | - |
| 1777656153 | 15° C | 30% | 1023.8 hPa | 0 mm | - | 781 W/m² | - |
| 1777655849 | 15° C | 29% | 1023.8 hPa | 0 mm | - | 770 W/m² | - |
* Rain latest hour (hover to see other rain measurements)
** Current wind speed in m/s (hover to see current wind gust speed)